RJK weather

Rijeka Airport
Rijeka, Primorje-Gorski Kotar County, Croatia

Public forecast

Using degrees Celsius for public forecast. Weather courtesy of forecast.io.

Current aviation weather report (METAR) for Rijeka Airport

Retrieved 2019/11/17 18:30 UTC (26 minutes ago):

LDRI 171830Z 12010KT 100V160 7000 -RA FEW017 BKN030 14/12 Q1006

Aviation forecast (TAF) for Rijeka Airport

Retrieved 2019/11/17 18:00 UTC (56 minutes ago):

TAF LDRI 171725Z 1718/1818 12012KT 9999 SCT030 BKN040 TX14/1813Z TN09/1804Z TEMPO 1718/1800 RA BKN010 PROB40 TEMPO 1719/1723 3000 SHRA FEW020TCU BKN030 BECMG 1721/1723 06008KT PROB30 TEMPO 1808/1816 16015KT 3000 SHRA FEW030TCU BKN040